ENRM

Rørvik , Ryum Airport

Rørvik, Norway
METAR ENRM 151250Z 14014KT CAVOK M03/M10 Q1027
Observed Flight Rules
Dec-15 @ 12:50 UTC (15 hours ago) Visual Flight Rules
Wind Visibility Clouds
140° at 14 knots 10,000+ meters
  • Clear skies
Temperatures Readings
Current -3°C / 27°F
Dewpoint -10°C / 14°F
Humidity 59%
Altimeter 30.32" Hg
Pressure 1027 hPa
Elevation 14
METAR ENRM 151250Z 14014KT CAVOK M03/M10 Q1027
Observed Flight Rules
Dec-15 @ 12:50 UTC
(15 hours ago)
VFR
Wind Visibility
140° at 14 knots 10,000+ meters
Clouds
  • Clear skies
Temperature Dewpoint
-3°C / 27°F -10°C / 14°F
Humidity Altimeter Pressure
59% 30.32" Hg 1027 hPa